• Join FlightAware (Why Join?)
  • Login
  • US Flag 
03:03PM EDT


 

Airport Tracker/Info


-or-


 

Live Flight TrackerFlight Track Log ✈ AWI3551 ✈ 22-Jun-2013 ✈ KALB - KDCA

Flight Track Log - Related Links

Times and Time Zones

All times are in EDT time to prevent confusion due to time zone crossing. See the AWI3551 flight status page for this flight to view local times or setup timezone preferences in your user account.

Time Position Orientation Groundspeed Altitude Reporting Facility
EDT Latitude Longitude Course Direction KTS MPH feet Rate Location/Type
08:12AM 42.7236 -73.8108 122° Southeast 160 184 1,400  Level Boston Center
08:13AM 42.7414 -73.8733 291° West 211 243 3,500 1,800 Climbing Boston Center
08:14AM 42.5253 -74.0007 171° South  Level Estimated
08:14AM 42.8094 -73.9458 322° Northwest 258 297 5,700  Level Boston Center
08:15AM 42.4506 -74.0667 180° South  Level Estimated
08:15AM 42.8647 -74.0150 317° Northwest 273 314 8,300  Level Boston Center
08:16AM 42.3759 -74.1324 172° South  Level Estimated
08:16AM 42.9031 -74.1039 301° West 268 308 10,600  Level Boston Center
08:17AM 42.3285 -74.0302 122° Southeast  Level FlightAware Approximate
08:17AM 42.8786 -74.2081 252° West 256 295 12,100  Level Boston Center
08:18AM 42.7997 -74.1775 164° South 228 262 13,500 1,380 Climbing Boston Center
08:19AM 42.7047 -74.1211 156° South 312 359 14,900 1,320 Climbing Boston Center
08:20AM 42.6158 -74.0764 160° South 335 386 16,200 1,440 Climbing Boston Center
08:21AM 42.5208 -74.0203 156° South 358 412 17,800 1,500 Climbing Boston Center
08:22AM 42.4275 -73.9703 158° South 370 426 19,300 1,260 Climbing Boston Center
08:23AM 42.3303 -73.9172 158° South 370 426 20,400 1,260 Climbing Boston Center
08:24AM 42.2289 -73.8617 158° South 375 432 21,900 1,260 Climbing Boston Center
08:25AM 42.1275 -73.8033 157° South 386 444 23,000 1,140 Climbing Boston Center
08:26AM 42.0303 -73.7508 158° South 406 467 24,200 1,260 Climbing Boston Center
08:27AM 41.9267 -73.6931 157° South 411 473 25,600 900 Climbing Boston Center
08:28AM 41.8231 -73.6381 158° South 411 473 26,000 600 Climbing Boston Center
08:29AM 41.7144 -73.6553 187° South 387 445 26,900 900 Climbing Boston Center
08:30AM 41.6142 -73.6842 192° South 382 440 27,900 480 Climbing Boston Center
08:31AM 41.5044 -73.7767 212° Southwest 350 403 28,000  Climbing New York Center
08:32AM 41.4128 -73.8556 213° Southwest 378 435 28,000  Level New York Center
08:33AM 41.3211 -73.9397 215° Southwest 398 458 28,000  Level New York Center
08:34AM 41.2208 -74.0289 214° Southwest 413 475 28,000  Level New York Center
08:35AM 41.1225 -74.1150 213° Southwest 425 489 28,000  Level New York Center
08:36AM 41.0267 -74.1925 211° Southwest 443 510 28,000  Level New York Center
08:37AM 40.9325 -74.2758 214° Southwest 443 510 28,000  Level New York Center
08:38AM 40.8428 -74.3506 212° Southwest 418 481 28,000  Level New York Center
08:39AM 40.7672 -74.4397 222° Southwest 390 449 28,000  Level New York Center
08:40AM 40.7056 -74.5433 232° Southwest 367 422 28,000  Level New York Center
08:41AM 40.6417 -74.6492 232° Southwest 367 422 28,000 -60 Level New York Center
08:42AM 40.5758 -74.7519 230° Southwest 367 422 27,900 -840 Descending New York Center
08:43AM 40.5014 -74.8542 226° Southwest 378 435 26,400 -1,500 Descending New York Center
08:44AM 40.4267 -74.9642 228° Southwest 390 449 24,900 -1,500 Descending New York Center
08:45AM 40.3497 -75.0739 227° Southwest 403 464 23,400 -1,500 Descending New York Center
08:46AM 40.2794 -75.1731 227° Southwest 398 458 22,000 -720 Descending New York Center
08:47AM 40.2089 -75.2744 228° Southwest 386 444 22,000  Level New York Center
08:48AM 40.1406 -75.3678 226° Southwest 380 437 22,000  Level New York Center
08:49AM 40.0744 -75.4611 227° Southwest 369 425 22,000  Level New York Center
08:50AM 40.0081 -75.5542 227° Southwest 363 418 22,000 -300 Level New York Center
08:51AM 39.9481 -75.6503 231° Southwest 353 406 21,400 -1,140 Descending New York Center
08:52AM 39.8897 -75.7436 231° Southwest 347 399 19,800 -1,260 Descending New York Center
08:53AM 39.8208 -75.8442 228° Southwest 342 394 19,000 -420 Descending New York Center
08:54AM 39.7697 -75.9214 229° Southwest 327 376 19,000 -960 Level New York Center
08:55AM 39.7136 -76.0092 230° Southwest 321 369 17,100 -1,920 Descending New York Center
08:58AM 39.5833 -76.2000 228° Southwest 300 345 12,900 -1,620 Descending Potomac TRACON
08:59AM 39.5333 -76.2833 232° Southwest 296 341 12,000 -480 Descending Potomac TRACON
08:59AM 39.4833 -76.3667 232° Southwest 282 325 12,000  Level Potomac TRACON
09:00AM 39.4333 -76.4333 226° Southwest 285 328 12,000  Level Potomac TRACON
09:01AM 39.3667 -76.5000 218° Southwest 289 333 12,000 -540 Level Potomac TRACON
09:02AM 39.3000 -76.5500 210° Southwest 286 329 11,000 -1,020 Descending Potomac TRACON
09:03AM 39.2333 -76.6000 210° Southwest 275 316 10,000 -540 Descending Potomac TRACON
09:04AM 39.1833 -76.6500 218° Southwest 278 320 10,000  Level Potomac TRACON
09:05AM 39.1167 -76.7167 218° Southwest 288 331 10,000 -600 Level Potomac TRACON
09:06AM 39.0667 -76.8000 232° Southwest 283 326 8,800 -1,020 Descending Potomac TRACON
09:07AM 39.0167 -76.8667 226° Southwest 251 289 8,000 -420 Descending Potomac TRACON
09:08AM 38.9833 -76.9333 237° Southwest 219 252 8,000 -720 Level Potomac TRACON
09:09AM 39.0000 -77.0000 288° West 229 264 6,700 -1,080 Descending Potomac TRACON
09:10AM 39.0167 -77.0667 288° West 204 235 6,000 -420 Descending Potomac TRACON
09:11AM 39.0500 -77.1167 311° West 199 229 6,000 -480 Level Potomac TRACON
09:12AM 39.0833 -77.1667 311° West 197 227 5,200 -540 Descending Potomac TRACON
09:13AM 39.1333 -77.2167 322° Northwest 201 231 5,000 -120 Descending Potomac TRACON
09:14AM 39.1167 -77.2667 247° West 185 213 5,000  Level Potomac TRACON
09:15AM 39.0667 -77.2833 195° South 183 211 5,000  Level Potomac TRACON
09:16AM 39.0333 -77.2500 142° Southeast 178 205 5,000 -600 Level Potomac TRACON
09:17AM 39.0000 -77.2000 131° Southeast 182 209 3,900 -1,200 Descending Potomac TRACON
09:18AM 38.9667 -77.1500 131° Southeast 176 203 2,800 -1,140 Descending Potomac TRACON